createdAt,value
2023-01-17T00:02:08.648Z,98380.25
2023-01-17T00:04:53.988Z,98386.94
2023-01-17T00:07:40.807Z,98381.03
2023-01-17T00:10:12.444Z,98389.06
2023-01-17T00:12:40.309Z,98396.81
2023-01-17T00:15:09.520Z,98402.69
2023-01-17T00:17:37.292Z,98411.25
2023-01-17T00:20:23.269Z,98395.47
2023-01-17T00:23:08.602Z,98405.63
2023-01-17T00:25:57.296Z,98417.91
2023-01-17T00:28:24.597Z,98412.84
2023-01-17T00:30:51.440Z,98431.81
2023-01-17T00:33:18.419Z,98433.41
2023-01-17T00:35:44.998Z,98428.84
2023-01-17T00:38:13.627Z,98438.97
2023-01-17T00:40:43.771Z,98436.81
2023-01-17T00:43:30.707Z,98452.06
2023-01-17T00:46:15.939Z,98449.41
2023-01-17T00:49:01.719Z,98460.63
2023-01-17T00:51:48.238Z,98460.63
2023-01-17T00:54:34.171Z,98468.09
2023-01-17T00:57:21.678Z,98475.84
2023-01-17T01:00:07.216Z,98482.78
2023-01-17T01:02:52.540Z,98490.25
2023-01-17T01:05:37.943Z,98492.13
2023-01-17T01:08:34.588Z,98496.38
2023-01-17T01:11:22.767Z,98496.59
2023-01-17T01:14:09.269Z,98496.88
2023-01-17T01:16:56.629Z,98510.72
2023-01-17T01:19:42.181Z,98509.38
2023-01-17T01:22:27.357Z,98507.47
2023-01-17T01:25:12.773Z,98506.16
2023-01-17T01:27:58.203Z,98508.88
2023-01-17T01:30:44.805Z,98513.41
2023-01-17T01:33:19.494Z,98510.72
2023-01-17T01:35:49.311Z,98520.34
2023-01-17T01:38:17.452Z,98526.00
2023-01-17T01:40:46.831Z,98527.31
2023-01-17T01:43:16.131Z,98535.31
2023-01-17T01:45:51.729Z,98536.13
2023-01-17T01:48:35.263Z,98544.16
2023-01-17T01:51:08.585Z,98544.16
2023-01-17T01:53:41.823Z,98543.34
2023-01-17T01:56:13.610Z,98552.16
2023-01-17T01:58:42.631Z,98550.28
2023-01-17T02:01:11.821Z,98552.16
2023-01-17T02:03:41.952Z,98562.84
2023-01-17T02:06:21.676Z,98565.50
2023-01-17T02:08:50.049Z,98574.34
2023-01-17T02:11:18.089Z,98576.75
2023-01-17T02:13:46.072Z,98578.06
2023-01-17T02:16:26.522Z,98582.84
2023-01-17T02:19:04.111Z,98588.22
2023-01-17T02:21:35.762Z,98594.88
2023-01-17T02:24:42.515Z,98592.44
2023-01-17T02:27:20.478Z,98588.41
2023-01-17T02:30:14.736Z,98591.91
2023-01-17T02:33:08.254Z,98602.84
2023-01-17T02:35:43.938Z,98598.81
2023-01-17T02:38:19.945Z,98610.84
2023-01-17T02:40:53.704Z,98604.94
2023-01-17T02:43:24.407Z,98624.72
2023-01-17T02:45:52.219Z,98623.09
2023-01-17T02:48:24.716Z,98619.63
2023-01-17T02:51:11.751Z,98607.84
2023-01-17T02:53:52.996Z,98603.81
2023-01-17T02:56:35.330Z,98598.47
2023-01-17T02:59:13.856Z,98609.69
2023-01-17T03:01:54.627Z,98610.50
2023-01-17T03:04:29.675Z,98602.50
2023-01-17T03:07:01.929Z,98610.25
2023-01-17T03:09:31.663Z,98607.56
2023-01-17T03:12:00.299Z,98614.78
2023-01-17T03:14:31.149Z,98620.38
2023-01-17T03:16:59.048Z,98612.38
2023-01-17T03:19:28.132Z,98615.84
2023-01-17T03:21:55.832Z,98629.44
2023-01-17T03:24:23.622Z,98628.66
2023-01-17T03:26:51.278Z,98628.09
2023-01-17T03:29:19.116Z,98628.91
2023-01-17T03:31:46.922Z,98627.28
2023-01-17T03:34:14.643Z,98633.44
2023-01-17T03:36:43.654Z,98634.25
2023-01-17T03:39:11.628Z,98631.81
2023-01-17T03:41:39.360Z,98637.41
2023-01-17T03:44:07.054Z,98638.22
2023-01-17T03:46:34.817Z,98641.94
2023-01-17T03:49:02.527Z,98630.47
2023-01-17T03:51:30.189Z,98638.47
2023-01-17T03:53:59.287Z,98638.72
2023-01-17T03:56:27.043Z,98637.91
2023-01-17T03:58:54.760Z,98636.06
2023-01-17T04:01:22.517Z,98636.31
2023-01-17T04:03:50.249Z,98637.13
2023-01-17T04:06:17.965Z,98637.13
2023-01-17T04:08:45.670Z,98624.81
2023-01-17T04:11:14.695Z,98633.91
2023-01-17T04:13:42.452Z,98630.16
2023-01-17T04:16:14.684Z,98626.69
2023-01-17T04:18:42.758Z,98631.25
2023-01-17T04:21:10.469Z,98628.03
2023-01-17T04:23:38.175Z,98633.38
2023-01-17T04:26:06.211Z,98631.75
2023-01-17T04:28:35.258Z,98627.47
2023-01-17T04:31:02.974Z,98630.94
2023-01-17T04:33:30.835Z,98638.16
2023-01-17T04:35:58.783Z,98632.25
2023-01-17T04:38:26.940Z,98631.69
2023-01-17T04:40:54.694Z,98633.56
2023-01-17T04:43:22.366Z,98632.75
2023-01-17T04:45:55.762Z,98630.91
2023-01-17T04:48:24.110Z,98634.63
2023-01-17T04:50:51.905Z,98635.94
2023-01-17T04:53:19.588Z,98641.28
2023-01-17T04:55:47.853Z,98639.41
2023-01-17T04:58:15.532Z,98634.31
2023-01-17T05:00:43.224Z,98630.84
2023-01-17T05:03:12.297Z,98631.09
2023-01-17T05:05:39.963Z,98634.81
2023-01-17T05:08:07.667Z,98638.56
2023-01-17T05:10:35.349Z,98632.41
2023-01-17T05:13:03.159Z,98630.78
2023-01-17T05:15:31.075Z,98632.91
2023-01-17T05:17:59.031Z,98628.06
2023-01-17T05:20:28.114Z,98640.59
2023-01-17T05:22:56.872Z,98648.88
2023-01-17T05:25:25.441Z,98651.78
2023-01-17T05:27:53.737Z,98646.69
2023-01-17T05:30:22.498Z,98650.41
2023-01-17T05:32:50.851Z,98654.94
2023-01-17T05:35:19.648Z,98653.34
2023-01-17T05:37:49.956Z,98651.72
2023-01-17T05:40:17.993Z,98657.06
2023-01-17T05:42:47.167Z,98652.78
2023-01-17T05:45:16.876Z,98653.84
2023-01-17T05:47:44.854Z,98665.56
2023-01-17T05:50:13.491Z,98661.28
2023-01-17T05:52:41.742Z,98658.63
2023-01-17T05:55:11.205Z,98668.50
2023-01-17T05:57:39.928Z,98677.31
2023-01-17T06:00:09.830Z,98678.34
2023-01-17T06:02:37.581Z,98674.06
2023-01-17T06:05:06.112Z,98678.09
2023-01-17T06:07:34.417Z,98670.59
2023-01-17T06:10:02.287Z,98668.97
2023-01-17T06:12:32.252Z,98671.91
2023-01-17T06:15:00.074Z,98678.03
2023-01-17T06:17:27.820Z,98676.44
2023-01-17T06:19:55.530Z,98676.69
2023-01-17T06:22:23.210Z,98669.72
2023-01-17T06:24:51.081Z,98671.59
2023-01-17T06:27:18.965Z,98675.06
2023-01-17T06:29:48.065Z,98679.03
2023-01-17T06:32:15.812Z,98674.75
2023-01-17T06:34:43.510Z,98672.34
2023-01-17T06:37:11.585Z,98678.47
2023-01-17T06:39:39.296Z,98684.88
2023-01-17T06:42:07.076Z,98684.06
2023-01-17T06:44:35.263Z,98683.50
2023-01-17T06:47:04.426Z,98686.16
2023-01-17T06:49:32.215Z,98679.22
2023-01-17T06:51:59.976Z,98683.75
2023-01-17T06:54:28.102Z,98682.13
2023-01-17T06:56:55.893Z,98682.63
2023-01-17T06:59:23.653Z,98685.06
2023-01-17T07:01:51.455Z,98687.97
2023-01-17T07:04:20.737Z,98692.25
2023-01-17T07:06:48.476Z,98687.97
2023-01-17T07:09:16.269Z,98697.81
2023-01-17T07:11:45.377Z,98700.75
2023-01-17T07:14:14.688Z,98690.31
2023-01-17T07:16:45.327Z,98694.66
2023-01-17T07:19:13.843Z,98702.88
2023-01-17T07:21:42.848Z,98695.69
2023-01-17T07:24:10.967Z,98701.59
2023-01-17T07:26:40.239Z,98702.97
2023-01-17T07:29:08.177Z,98709.97
2023-01-17T07:31:38.143Z,98704.28
2023-01-17T07:34:05.842Z,98696.47
2023-01-17T07:36:33.665Z,98709.50
2023-01-17T07:39:04.308Z,98702.97
2023-01-17T07:41:34.638Z,98700.69
2023-01-17T07:44:02.348Z,98702.22
2023-01-17T07:46:31.848Z,98699.41
2023-01-17T07:48:59.536Z,98705.88
2023-01-17T07:51:27.253Z,98705.28
2023-01-17T07:53:54.964Z,98706.25
2023-01-17T07:56:24.337Z,98708.75
2023-01-17T07:58:52.015Z,98707.06
2023-01-17T08:01:19.821Z,98711.25
2023-01-17T08:03:47.594Z,98711.69
2023-01-17T08:06:19.803Z,98703.06
2023-01-17T08:08:47.873Z,98705.09
2023-01-17T08:11:15.929Z,98705.59
2023-01-17T08:13:44.970Z,98697.47
2023-01-17T08:16:13.628Z,98698.84
2023-01-17T08:18:41.521Z,98702.81
2023-01-17T08:21:14.588Z,98700.56
2023-01-17T08:23:42.297Z,98709.38
2023-01-17T08:26:10.180Z,98703.47
2023-01-17T08:28:37.916Z,98710.13
2023-01-17T08:31:10.845Z,98712.47
2023-01-17T08:33:38.615Z,98718.06
2023-01-17T08:36:06.736Z,98726.06
2023-01-17T08:38:34.460Z,98722.81
2023-01-17T08:41:02.726Z,98736.16
2023-01-17T08:43:30.419Z,98733.97
2023-01-17T08:45:58.175Z,98727.84
2023-01-17T08:48:27.333Z,98726.47
2023-01-17T08:50:55.032Z,98740.88
2023-01-17T08:53:23.403Z,98740.28
2023-01-17T08:55:58.669Z,98737.63
2023-01-17T08:58:29.750Z,98736.81
2023-01-17T09:01:01.094Z,98736.81
2023-01-17T09:03:30.240Z,98724.22
2023-01-17T09:06:06.129Z,98728.25
2023-01-17T09:08:34.419Z,98725.84
2023-01-17T09:11:04.703Z,98724.22
2023-01-17T09:13:32.522Z,98725.28
2023-01-17T09:16:00.781Z,98731.41
2023-01-17T09:18:31.250Z,98737.00
2023-01-17T09:20:59.436Z,98733.28
2023-01-17T09:23:28.688Z,98737.56
2023-01-17T09:25:57.669Z,98729.81
2023-01-17T09:28:26.484Z,98737.00
2023-01-17T09:30:54.313Z,98733.53
2023-01-17T09:33:23.194Z,98724.16
2023-01-17T09:35:52.312Z,98742.88
2023-01-17T09:38:21.747Z,98743.13
2023-01-17T09:40:49.963Z,98745.00
2023-01-17T09:43:25.023Z,98748.47
2023-01-17T09:45:53.276Z,98744.19
2023-01-17T09:48:29.265Z,98748.97
2023-01-17T09:51:04.012Z,98749.28
2023-01-17T09:53:35.251Z,98748.72
2023-01-17T09:56:07.781Z,98751.69
2023-01-17T09:58:42.583Z,98753.31
2023-01-17T10:01:16.725Z,98757.59
2023-01-17T10:04:12.564Z,98762.94
2023-01-17T10:07:00.816Z,98765.34
2023-01-17T10:09:58.934Z,98757.34
2023-01-17T10:12:31.994Z,98762.69
2023-01-17T10:15:18.104Z,98765.34
2023-01-17T10:17:54.581Z,98765.09
2023-01-17T10:20:46.204Z,98774.47
2023-01-17T10:23:33.242Z,98773.44
2023-01-17T10:26:04.187Z,98770.53
2023-01-17T10:28:37.430Z,98769.72
2023-01-17T10:31:09.125Z,98770.53
2023-01-17T10:33:42.701Z,98761.72
2023-01-17T10:36:16.758Z,98767.84
2023-01-17T10:38:49.693Z,98762.19
2023-01-17T10:41:23.435Z,98759.22
2023-01-17T10:43:59.839Z,98764.38
2023-01-17T10:46:35.161Z,98770.75
2023-01-17T10:49:03.670Z,98771.25
2023-01-17T10:51:59.960Z,98768.28
2023-01-17T10:54:41.659Z,98773.06
2023-01-17T10:57:15.965Z,98762.03
2023-01-17T10:59:44.168Z,98760.66
2023-01-17T11:02:21.253Z,98756.56
2023-01-17T11:04:54.292Z,98765.00
2023-01-17T11:07:23.885Z,98749.66
2023-01-17T11:09:54.302Z,98765.84
2023-01-17T11:12:27.565Z,98760.06
2023-01-17T11:15:07.590Z,98758.28
2023-01-17T11:17:37.770Z,98760.47
2023-01-17T11:20:16.535Z,98752.50
2023-01-17T11:23:02.623Z,98750.13
2023-01-17T11:25:34.364Z,98748.16
2023-01-17T11:28:05.541Z,98745.06
2023-01-17T11:30:33.963Z,98746.78
2023-01-17T11:33:06.069Z,98750.13
2023-01-17T11:35:36.488Z,98748.13
2023-01-17T11:38:12.638Z,98745.88
2023-01-17T11:40:43.331Z,98749.25
2023-01-17T11:43:23.433Z,98743.03
2023-01-17T11:46:07.146Z,98745.38
2023-01-17T11:48:37.836Z,98735.69
2023-01-17T11:51:15.814Z,98734.31
2023-01-17T11:53:48.122Z,98723.53
2023-01-17T11:56:27.993Z,98735.88
2023-01-17T11:59:25.104Z,98723.84
2023-01-17T12:02:16.211Z,98734.78
2023-01-17T12:04:48.278Z,98724.84
2023-01-17T12:07:26.179Z,98729.38
2023-01-17T12:10:02.087Z,98724.03
2023-01-17T12:13:00.136Z,98723.22
2023-01-17T12:15:35.111Z,98722.94
2023-01-17T12:18:24.667Z,98724.53
2023-01-17T12:21:03.304Z,98720.00
2023-01-17T12:23:45.465Z,98722.94
2023-01-17T12:26:27.600Z,98717.59
2023-01-17T12:29:21.845Z,98722.94
2023-01-17T12:32:01.902Z,98730.69
2023-01-17T12:34:35.560Z,98730.69
2023-01-17T12:37:14.049Z,98702.25
2023-01-17T12:39:48.181Z,98714.97
2023-01-17T12:42:21.265Z,98717.53
2023-01-17T12:44:57.881Z,98715.06
2023-01-17T12:47:26.515Z,98715.53
2023-01-17T12:50:03.167Z,98707.66
2023-01-17T12:52:42.499Z,98710.75
2023-01-17T12:55:15.514Z,98710.34
2023-01-17T12:57:47.274Z,98710.44
2023-01-17T13:00:23.012Z,98712.41
2023-01-17T13:02:55.150Z,98708.16
2023-01-17T13:05:26.216Z,98704.72
2023-01-17T13:08:03.021Z,98703.38
2023-01-17T13:10:36.007Z,98706.34
2023-01-17T13:13:14.214Z,98703.59
2023-01-17T13:15:44.384Z,98701.66
2023-01-17T13:18:16.051Z,98706.91
2023-01-17T13:21:08.854Z,98711.88
2023-01-17T13:23:55.875Z,98708.28
2023-01-17T13:26:33.228Z,98706.06
2023-01-17T13:29:10.270Z,98707.84
2023-01-17T13:31:47.989Z,98716.38
2023-01-17T13:34:41.437Z,98711.81
2023-01-17T13:37:33.552Z,98704.81
2023-01-17T13:40:19.549Z,98709.72
2023-01-17T13:42:55.904Z,98703.97
2023-01-17T13:45:27.059Z,98704.63
2023-01-17T13:48:11.451Z,98698.88
2023-01-17T13:50:52.991Z,98695.50
2023-01-17T13:53:47.742Z,98697.44
2023-01-17T13:56:24.272Z,98701.47
2023-01-17T13:59:03.228Z,98706.56
2023-01-17T14:01:50.732Z,98712.13
2023-01-17T14:04:19.940Z,98723.56
2023-01-17T14:06:50.120Z,98713.28
2023-01-17T14:09:25.987Z,98716.66
2023-01-17T14:12:00.769Z,98715.25
2023-01-17T14:14:52.000Z,98710.34
2023-01-17T14:17:59.616Z,98721.25
2023-01-17T14:21:04.398Z,98732.16
2023-01-17T14:23:52.086Z,98723.56
2023-01-17T14:26:26.851Z,98723.50
2023-01-17T14:28:56.255Z,98721.38
2023-01-17T14:31:25.223Z,98730.59
2023-01-17T14:33:54.174Z,98728.84
2023-01-17T14:36:31.487Z,98734.34
2023-01-17T14:38:59.231Z,98729.41
2023-01-17T14:41:29.154Z,98724.66
2023-01-17T14:43:58.399Z,98722.31
2023-01-17T14:46:28.691Z,98728.56
2023-01-17T14:49:02.180Z,98733.41
2023-01-17T14:51:35.091Z,98731.84
2023-01-17T14:54:05.482Z,98736.41
2023-01-17T14:56:33.794Z,98728.91
2023-01-17T14:59:16.987Z,98739.03
2023-01-17T15:02:06.683Z,98741.88
2023-01-17T15:04:39.456Z,98740.22
2023-01-17T15:07:15.812Z,98746.00
2023-01-17T15:09:45.150Z,98741.06
2023-01-17T15:12:14.835Z,98748.47
2023-01-17T15:14:45.557Z,98756.19
2023-01-17T15:17:20.097Z,98748.63
2023-01-17T15:19:53.139Z,98755.81
2023-01-17T15:22:23.588Z,98764.59
2023-01-17T15:24:51.870Z,98760.00
2023-01-17T15:27:19.945Z,98758.91
2023-01-17T15:29:48.342Z,98769.31
2023-01-17T15:32:22.369Z,98766.59
2023-01-17T15:34:52.287Z,98768.16
2023-01-17T15:37:30.101Z,98770.28
2023-01-17T15:40:07.610Z,98763.56
2023-01-17T15:42:39.819Z,98767.81
2023-01-17T15:45:15.522Z,98761.09
2023-01-17T15:47:43.458Z,98768.06
2023-01-17T15:50:30.203Z,98765.44
2023-01-17T15:53:01.888Z,98769.34
2023-01-17T15:55:32.495Z,98751.25
2023-01-17T15:58:00.754Z,98766.72
2023-01-17T16:00:37.680Z,98767.72
2023-01-17T16:03:20.869Z,98767.00
2023-01-17T16:05:49.897Z,98769.38
2023-01-17T16:08:33.975Z,98776.78
2023-01-17T16:11:03.707Z,98765.59
2023-01-17T16:13:33.032Z,98768.97
2023-01-17T16:16:15.136Z,98765.66
2023-01-17T16:18:43.485Z,98770.66
2023-01-17T16:21:19.780Z,98773.00
2023-01-17T16:23:48.859Z,98778.78
2023-01-17T16:26:16.850Z,98791.06
2023-01-17T16:28:44.765Z,98784.84
2023-01-17T16:31:12.850Z,98790.94
2023-01-17T16:33:42.057Z,98796.78
2023-01-17T16:36:14.714Z,98793.56
2023-01-17T16:38:42.568Z,98796.75
2023-01-17T16:41:11.774Z,98791.34
2023-01-17T16:43:39.491Z,98792.66
2023-01-17T16:46:07.519Z,98795.53
2023-01-17T16:48:35.218Z,98799.81
2023-01-17T16:51:06.777Z,98805.41
2023-01-17T16:53:34.707Z,98806.69
2023-01-17T16:56:10.210Z,98811.50
2023-01-17T16:58:39.372Z,98811.50
2023-01-17T17:01:10.227Z,98815.22
2023-01-17T17:03:38.397Z,98804.41
2023-01-17T17:06:06.430Z,98807.22
2023-01-17T17:08:35.527Z,98809.06
2023-01-17T17:11:14.913Z,98815.66
2023-01-17T17:13:45.662Z,98813.66
2023-01-17T17:16:15.901Z,98814.34
2023-01-17T17:18:44.096Z,98819.06
2023-01-17T17:21:11.960Z,98811.69
2023-01-17T17:23:39.747Z,98817.88
2023-01-17T17:26:07.607Z,98822.66
2023-01-17T17:28:35.755Z,98830.56
2023-01-17T17:31:10.379Z,98828.50
2023-01-17T17:33:38.743Z,98830.47
2023-01-17T17:36:10.182Z,98830.91
2023-01-17T17:38:50.695Z,98838.00
2023-01-17T17:41:20.659Z,98830.34
2023-01-17T17:43:48.821Z,98853.34
2023-01-17T17:46:18.446Z,98845.50
2023-01-17T17:48:46.182Z,98843.59
2023-01-17T17:51:23.598Z,98854.78
2023-01-17T17:53:52.677Z,98842.16
2023-01-17T17:56:20.593Z,98837.56
2023-01-17T17:58:48.874Z,98849.56
2023-01-17T18:01:18.156Z,98852.50
2023-01-17T18:03:46.128Z,98857.28
2023-01-17T18:06:15.897Z,98855.34
2023-01-17T18:08:43.709Z,98850.75
2023-01-17T18:11:14.883Z,98860.88
2023-01-17T18:13:43.415Z,98858.44
2023-01-17T18:16:12.798Z,98868.31
2023-01-17T18:18:44.794Z,98874.13
2023-01-17T18:21:14.480Z,98883.13
2023-01-17T18:23:45.566Z,98877.66
2023-01-17T18:26:18.516Z,98875.75
2023-01-17T18:28:46.493Z,98892.00
2023-01-17T18:31:14.370Z,98896.09
2023-01-17T18:33:43.481Z,98901.09
2023-01-17T18:36:12.866Z,98889.97
2023-01-17T18:38:42.398Z,98907.78
2023-01-17T18:41:12.722Z,98917.00
2023-01-17T18:43:40.965Z,98925.94
2023-01-17T18:46:09.869Z,98924.50
2023-01-17T18:48:38.516Z,98927.38
2023-01-17T18:51:09.126Z,98923.56
2023-01-17T18:53:38.486Z,98924.31
2023-01-17T18:56:08.514Z,98931.78
2023-01-17T18:58:38.795Z,98926.91
2023-01-17T19:01:08.676Z,98935.75
2023-01-17T19:03:36.544Z,98932.50
2023-01-17T19:06:06.017Z,98931.13
2023-01-17T19:08:36.295Z,98936.16
2023-01-17T19:11:04.551Z,98936.41
2023-01-17T19:13:32.727Z,98938.19
2023-01-17T19:16:01.990Z,98948.88
2023-01-17T19:18:30.186Z,98955.53
2023-01-17T19:21:03.833Z,98955.22
2023-01-17T19:23:31.560Z,98956.56
2023-01-17T19:26:00.611Z,98959.22
2023-01-17T19:28:29.088Z,98958.63
2023-01-17T19:31:03.999Z,98959.13
2023-01-17T19:33:31.815Z,98966.78
2023-01-17T19:36:00.770Z,98968.16
2023-01-17T19:38:28.739Z,98962.44
2023-01-17T19:40:56.515Z,98964.78
2023-01-17T19:43:25.691Z,98971.63
2023-01-17T19:45:58.534Z,98969.13
2023-01-17T19:48:26.808Z,98974.91
2023-01-17T19:50:55.562Z,98974.28
2023-01-17T19:53:23.642Z,98979.28
2023-01-17T19:55:51.418Z,98975.75
2023-01-17T19:58:19.190Z,98972.50
2023-01-17T20:00:48.319Z,98973.25
2023-01-17T20:03:16.090Z,98966.22
2023-01-17T20:05:46.033Z,98970.66
2023-01-17T20:08:14.227Z,98972.78
2023-01-17T20:10:41.912Z,98967.53
2023-01-17T20:13:09.618Z,98983.66
2023-01-17T20:15:37.318Z,98983.31
2023-01-17T20:18:06.591Z,98990.53
2023-01-17T20:20:34.448Z,98991.00
2023-01-17T20:23:05.523Z,98990.44
2023-01-17T20:25:33.259Z,98996.03
2023-01-17T20:28:01.304Z,98991.97
2023-01-17T20:30:31.810Z,98997.81
2023-01-17T20:32:59.893Z,98986.31
2023-01-17T20:35:29.694Z,98989.78
2023-01-17T20:37:57.751Z,98988.19
2023-01-17T20:40:25.667Z,98987.59
2023-01-17T20:42:53.444Z,98997.47
2023-01-17T20:45:21.157Z,98995.84
2023-01-17T20:47:49.610Z,98999.56
2023-01-17T20:50:17.515Z,98998.19
2023-01-17T20:52:48.145Z,98991.25
2023-01-17T20:55:15.960Z,98990.69
2023-01-17T20:57:43.696Z,98993.34
2023-01-17T21:00:12.830Z,98995.44
2023-01-17T21:02:40.589Z,99001.03
2023-01-17T21:05:12.746Z,98999.41
2023-01-17T21:07:40.446Z,99000.47
2023-01-17T21:10:10.558Z,99006.84
2023-01-17T21:12:38.337Z,98999.06
2023-01-17T21:15:07.009Z,98999.56
2023-01-17T21:17:35.934Z,99003.28
2023-01-17T21:20:08.010Z,99007.00
2023-01-17T21:22:35.729Z,99005.38
2023-01-17T21:25:03.416Z,99008.28
2023-01-17T21:27:32.483Z,99010.16
2023-01-17T21:30:00.201Z,99016.53
2023-01-17T21:32:29.081Z,99015.16
2023-01-17T21:34:56.754Z,99010.88
2023-01-17T21:37:24.483Z,99017.00
2023-01-17T21:39:54.863Z,99017.25
2023-01-17T21:42:22.558Z,99018.28
2023-01-17T21:44:52.037Z,99018.53
2023-01-17T21:47:20.023Z,99021.19
2023-01-17T21:49:47.713Z,99023.06
2023-01-17T21:52:21.331Z,99021.69
2023-01-17T21:55:06.285Z,99010.59
2023-01-17T21:57:51.622Z,99023.78
2023-01-17T22:00:21.029Z,99030.97
2023-01-17T22:02:49.496Z,99026.91
2023-01-17T22:05:18.525Z,99029.34
2023-01-17T22:08:00.257Z,99032.25
2023-01-17T22:10:27.978Z,99023.44
2023-01-17T22:12:55.746Z,99031.69
2023-01-17T22:15:24.878Z,99024.50
2023-01-17T22:17:52.591Z,99024.16
2023-01-17T22:20:21.393Z,99034.81
2023-01-17T22:22:49.128Z,99041.22
2023-01-17T22:25:16.996Z,99043.88
2023-01-17T22:27:44.695Z,99039.59
2023-01-17T22:30:13.886Z,99042.25
2023-01-17T22:32:42.983Z,99037.16
2023-01-17T22:35:10.840Z,99041.09
2023-01-17T22:37:38.541Z,99039.50
2023-01-17T22:40:07.570Z,99040.78
2023-01-17T22:42:35.475Z,99041.34
2023-01-17T22:45:03.270Z,99043.44
2023-01-17T22:47:30.931Z,99041.00
2023-01-17T22:49:59.978Z,99038.59
2023-01-17T22:52:27.677Z,99044.97
2023-01-17T22:54:55.460Z,99047.06
2023-01-17T22:57:23.468Z,99047.06
2023-01-17T22:59:51.425Z,99047.06
2023-01-17T23:02:19.286Z,99050.19
2023-01-17T23:04:47.548Z,99050.19
2023-01-17T23:07:16.915Z,99038.63
2023-01-17T23:09:45.679Z,99048.81
2023-01-17T23:12:13.414Z,99045.34
2023-01-17T23:14:58.608Z,99042.91
2023-01-17T23:17:43.870Z,99049.28
2023-01-17T23:20:12.557Z,99051.13
2023-01-17T23:22:41.590Z,99046.03
2023-01-17T23:25:12.226Z,99046.28
2023-01-17T23:27:59.741Z,99047.31
2023-01-17T23:30:29.034Z,99048.38
2023-01-17T23:32:58.909Z,99048.59
2023-01-17T23:35:29.107Z,99052.56
2023-01-17T23:38:16.101Z,99046.84
2023-01-17T23:41:04.728Z,99051.94
2023-01-17T23:43:31.704Z,99049.28
2023-01-17T23:45:59.585Z,99054.03
2023-01-17T23:48:28.110Z,99050.31
2023-01-17T23:50:59.118Z,99047.91
2023-01-17T23:53:28.991Z,99047.91
2023-01-17T23:55:59.527Z,99050.56
2023-01-17T23:58:28.721Z,99050.56
